createdAt,value
2023-05-20T00:01:49.225Z,1.05
2023-05-20T00:04:16.222Z,1.00
2023-05-20T00:06:42.954Z,0.95
2023-05-20T00:09:10.137Z,1.30
2023-05-20T00:11:36.976Z,0.77
2023-05-20T00:14:03.704Z,0.82
2023-05-20T00:16:30.426Z,1.27
2023-05-20T00:18:57.451Z,1.17
2023-05-20T00:21:24.229Z,0.73
2023-05-20T00:23:51.258Z,0.60
2023-05-20T00:26:17.838Z,0.93
2023-05-20T00:28:44.557Z,0.90
2023-05-20T00:31:11.187Z,0.95
2023-05-20T00:33:38.006Z,1.08
2023-05-20T00:36:05.096Z,0.93
2023-05-20T00:38:31.695Z,1.13
2023-05-20T00:40:58.299Z,0.85
2023-05-20T00:43:25.565Z,0.70
2023-05-20T00:45:54.158Z,0.60
2023-05-20T00:48:22.276Z,0.60
2023-05-20T00:50:50.567Z,1.13
2023-05-20T00:53:21.536Z,2.00
2023-05-20T00:55:48.622Z,0.95
2023-05-20T00:58:15.497Z,1.08
2023-05-20T01:00:42.924Z,1.25
2023-05-20T01:03:11.020Z,1.35
2023-05-20T01:05:39.849Z,1.10
2023-05-20T01:08:08.353Z,0.82
2023-05-20T01:10:39.365Z,1.10
2023-05-20T01:13:11.596Z,0.93
2023-05-20T01:15:41.035Z,0.82
2023-05-20T01:18:10.833Z,1.13
2023-05-20T01:20:37.974Z,1.63
2023-05-20T01:23:04.689Z,0.82
2023-05-20T01:25:31.425Z,0.85
2023-05-20T01:27:58.765Z,1.25
2023-05-20T01:30:41.502Z,1.65
2023-05-20T01:33:12.411Z,1.35
2023-05-20T01:35:41.488Z,0.82
2023-05-20T01:38:08.705Z,1.10
2023-05-20T01:40:36.257Z,0.65
2023-05-20T01:43:03.511Z,0.95
2023-05-20T01:45:31.347Z,1.10
2023-05-20T01:47:58.082Z,0.90
2023-05-20T01:50:24.809Z,1.15
2023-05-20T01:52:51.582Z,1.42
2023-05-20T01:55:18.405Z,1.05
2023-05-20T01:57:45.100Z,0.80
2023-05-20T02:00:12.265Z,0.93
2023-05-20T02:02:39.165Z,1.25
2023-05-20T02:05:06.115Z,1.35
2023-05-20T02:07:32.857Z,1.63
2023-05-20T02:09:59.552Z,1.70
2023-05-20T02:12:26.387Z,1.42
2023-05-20T02:14:53.007Z,0.88
2023-05-20T02:17:20.044Z,1.48
2023-05-20T02:19:47.353Z,1.20
2023-05-20T02:22:14.458Z,1.23
2023-05-20T02:24:41.695Z,1.27
2023-05-20T02:27:08.413Z,1.60
2023-05-20T02:29:35.325Z,1.10
2023-05-20T02:32:01.960Z,1.33
2023-05-20T02:34:30.438Z,1.25
2023-05-20T02:36:57.392Z,1.10
2023-05-20T02:39:24.112Z,1.83
2023-05-20T02:41:50.791Z,1.80
2023-05-20T02:44:18.182Z,2.00
2023-05-20T02:46:44.942Z,2.00
2023-05-20T02:49:11.786Z,1.20
2023-05-20T02:51:38.668Z,1.25
2023-05-20T02:54:05.528Z,1.40
2023-05-20T02:56:32.542Z,1.20
2023-05-20T02:58:59.291Z,1.30
2023-05-20T03:01:25.987Z,1.58
2023-05-20T03:03:52.898Z,1.63
2023-05-20T03:06:19.629Z,1.80
2023-05-20T03:08:46.322Z,1.80
2023-05-20T03:11:13.007Z,1.95
2023-05-20T03:13:42.641Z,2.08
2023-05-20T03:16:09.567Z,2.15
2023-05-20T03:21:04.599Z,1.50
2023-05-20T03:23:31.262Z,1.50
2023-05-20T03:25:58.262Z,1.80
2023-05-20T03:28:24.850Z,1.48
2023-05-20T03:30:51.796Z,1.90
2023-05-20T03:33:18.478Z,1.50
2023-05-20T03:35:45.119Z,1.90
2023-05-20T03:38:11.813Z,2.50
2023-05-20T03:40:38.788Z,1.98
2023-05-20T03:43:05.645Z,2.22
2023-05-20T03:45:33.998Z,1.80
2023-05-20T03:48:00.897Z,1.75
2023-05-20T03:50:27.733Z,1.55
2023-05-20T03:52:54.498Z,1.58
2023-05-20T03:55:21.390Z,1.80
2023-05-20T03:57:48.056Z,1.77
2023-05-20T04:00:14.961Z,1.95
2023-05-20T04:02:42.032Z,1.55
2023-05-20T04:05:10.700Z,1.42
2023-05-20T04:07:37.635Z,1.73
2023-05-20T04:10:05.422Z,1.52
2023-05-20T04:12:32.780Z,2.90
2023-05-20T04:15:01.392Z,2.60
2023-05-20T04:17:30.185Z,2.05
2023-05-20T04:19:59.887Z,1.35
2023-05-20T04:22:27.203Z,1.75
2023-05-20T04:24:53.971Z,1.40
2023-05-20T04:27:21.680Z,2.00
2023-05-20T04:29:48.666Z,1.63
2023-05-20T04:32:18.902Z,1.90
2023-05-20T04:34:46.332Z,2.63
2023-05-20T04:37:13.937Z,1.63
2023-05-20T04:39:40.664Z,2.22
2023-05-20T04:42:07.417Z,1.65
2023-05-20T04:44:34.537Z,2.75
2023-05-20T04:47:01.585Z,2.33
2023-05-20T04:49:30.023Z,1.75
2023-05-20T04:52:00.882Z,3.38
2023-05-20T04:54:27.785Z,2.63
2023-05-20T04:56:54.474Z,2.15
2023-05-20T04:59:21.494Z,2.08
2023-05-20T05:01:48.224Z,1.83
2023-05-20T05:04:14.943Z,2.95
2023-05-20T05:06:41.751Z,1.83
2023-05-20T05:09:08.896Z,2.38
2023-05-20T05:11:35.764Z,2.38
2023-05-20T05:14:02.446Z,2.65
2023-05-20T05:16:29.158Z,1.92
2023-05-20T05:18:56.117Z,2.22
2023-05-20T05:21:22.795Z,2.08
2023-05-20T05:23:49.486Z,2.28
2023-05-20T05:26:16.256Z,2.75
2023-05-20T05:28:45.550Z,3.00
2023-05-20T05:31:12.164Z,2.40
2023-05-20T05:33:39.172Z,2.63
2023-05-20T05:36:06.596Z,2.28
2023-05-20T05:38:33.355Z,2.40
2023-05-20T05:41:00.062Z,1.85
2023-05-20T05:43:26.813Z,1.40
2023-05-20T05:45:53.497Z,2.72
2023-05-20T05:48:20.398Z,2.95
2023-05-20T05:50:47.346Z,2.35
2023-05-20T05:53:14.123Z,1.92
2023-05-20T05:55:40.881Z,2.38
2023-05-20T05:58:07.702Z,3.45
2023-05-20T06:00:34.508Z,2.15
2023-05-20T06:03:01.528Z,1.67
2023-05-20T06:05:29.811Z,2.65
2023-05-20T06:07:56.795Z,2.47
2023-05-20T06:10:23.769Z,2.72
2023-05-20T06:12:50.529Z,2.25
2023-05-20T06:15:18.449Z,2.95
2023-05-20T06:17:45.243Z,1.73
2023-05-20T06:20:12.482Z,2.65
2023-05-20T06:22:39.318Z,3.00
2023-05-20T06:25:06.521Z,2.00
2023-05-20T06:27:33.393Z,2.15
2023-05-20T06:30:00.351Z,2.10
2023-05-20T06:32:27.958Z,2.20
2023-05-20T06:34:54.617Z,2.58
2023-05-20T06:37:24.398Z,2.20
2023-05-20T06:39:54.063Z,2.47
2023-05-20T06:42:21.638Z,2.55
2023-05-20T06:44:48.384Z,2.78
2023-05-20T06:47:16.908Z,2.28
2023-05-20T06:49:47.163Z,1.88
2023-05-20T06:52:14.449Z,2.70
2023-05-20T06:54:41.839Z,1.92
2023-05-20T06:57:09.406Z,2.85
2023-05-20T06:59:37.361Z,1.95
2023-05-20T07:04:31.105Z,2.08
2023-05-20T07:06:57.816Z,1.98
2023-05-20T07:09:24.834Z,2.42
2023-05-20T07:11:51.589Z,2.45
2023-05-20T07:14:18.293Z,1.83
2023-05-20T07:16:44.953Z,1.40
2023-05-20T07:19:11.909Z,1.85
2023-05-20T07:21:38.941Z,1.13
2023-05-20T07:24:06.004Z,1.13
2023-05-20T07:26:36.363Z,1.27
2023-05-20T07:29:05.916Z,1.98
2023-05-20T07:31:32.666Z,1.23
2023-05-20T07:33:59.391Z,1.15
2023-05-20T07:36:29.685Z,1.25
2023-05-20T07:39:03.084Z,1.75
2023-05-20T07:41:32.140Z,1.58
2023-05-20T07:43:58.754Z,1.45
2023-05-20T07:46:25.552Z,1.00
2023-05-20T07:48:52.220Z,1.70
2023-05-20T07:51:19.129Z,2.40
2023-05-20T07:53:45.846Z,1.60
2023-05-20T07:56:12.628Z,1.10
2023-05-20T07:58:42.224Z,1.13
2023-05-20T08:01:09.886Z,2.10
2023-05-20T08:03:36.987Z,1.63
2023-05-20T08:06:03.946Z,2.45
2023-05-20T08:08:30.858Z,1.35
2023-05-20T08:10:57.452Z,2.22
2023-05-20T08:13:24.777Z,1.25
2023-05-20T08:15:55.655Z,1.85
2023-05-20T08:18:23.106Z,1.27
2023-05-20T08:20:50.995Z,1.10
2023-05-20T08:23:17.702Z,1.35
2023-05-20T08:25:46.931Z,1.92
2023-05-20T08:28:13.749Z,1.20
2023-05-20T08:30:41.486Z,1.27
2023-05-20T08:33:11.246Z,1.77
2023-05-20T08:35:39.633Z,1.67
2023-05-20T08:38:07.865Z,0.98
2023-05-20T08:40:37.558Z,0.95
2023-05-20T08:43:04.751Z,1.35
2023-05-20T08:45:33.797Z,2.22
2023-05-20T08:48:01.732Z,1.40
2023-05-20T08:50:28.411Z,1.58
2023-05-20T08:52:55.229Z,2.63
2023-05-20T08:55:42.121Z,1.05
2023-05-20T08:58:10.207Z,1.30
2023-05-20T09:03:05.537Z,1.50
2023-05-20T09:08:10.365Z,1.45
2023-05-20T09:10:41.681Z,1.73
2023-05-20T09:13:10.620Z,1.58
2023-05-20T09:15:37.789Z,1.67
2023-05-20T09:18:06.117Z,1.50
2023-05-20T09:20:35.185Z,1.88
2023-05-20T09:23:05.651Z,1.98
2023-05-20T09:25:34.444Z,2.47
2023-05-20T09:28:01.359Z,1.00
2023-05-20T09:30:28.122Z,1.80
2023-05-20T09:32:56.987Z,1.30
2023-05-20T09:35:26.435Z,3.15
2023-05-20T09:37:55.007Z,1.30
2023-05-20T09:40:26.235Z,1.48
2023-05-20T09:42:58.531Z,1.48
2023-05-20T09:45:25.318Z,2.17
2023-05-20T09:47:55.131Z,1.70
2023-05-20T09:50:23.497Z,2.30
2023-05-20T09:52:52.413Z,2.13
2023-05-20T09:55:21.936Z,2.50
2023-05-20T09:57:49.149Z,1.80
2023-05-20T10:00:20.039Z,1.48
2023-05-20T10:02:49.133Z,1.10
2023-05-20T10:05:30.221Z,2.78
2023-05-20T10:08:20.907Z,1.50
2023-05-20T10:11:16.827Z,1.50
2023-05-20T10:14:09.146Z,1.25
2023-05-20T10:16:50.681Z,1.50
2023-05-20T10:19:32.756Z,1.30
2023-05-20T10:22:11.424Z,1.90
2023-05-20T10:24:43.519Z,1.65
2023-05-20T10:27:14.321Z,1.83
2023-05-20T10:29:55.098Z,2.03
2023-05-20T10:32:29.982Z,1.65
2023-05-20T10:35:01.889Z,1.45
2023-05-20T10:37:30.829Z,1.13
2023-05-20T10:40:11.638Z,1.08
2023-05-20T10:42:39.105Z,1.33
2023-05-20T10:45:11.697Z,1.85
2023-05-20T10:47:54.125Z,1.65
2023-05-20T10:50:50.528Z,1.98
2023-05-20T10:53:29.655Z,2.17
2023-05-20T10:55:59.968Z,1.38
2023-05-20T10:58:26.785Z,1.40
2023-05-20T11:00:55.000Z,1.50
2023-05-20T11:03:23.119Z,1.65
2023-05-20T11:05:50.716Z,2.15
2023-05-20T11:08:28.700Z,1.23
2023-05-20T11:10:59.163Z,2.97
2023-05-20T11:13:26.349Z,1.42
2023-05-20T11:15:53.412Z,1.95
2023-05-20T11:18:20.523Z,1.88
2023-05-20T11:20:47.437Z,1.13
2023-05-20T11:23:15.485Z,1.98
2023-05-20T11:28:14.570Z,1.70
2023-05-20T11:30:43.312Z,1.77
2023-05-20T11:33:13.258Z,0.75
2023-05-20T11:35:52.043Z,1.58
2023-05-20T11:38:20.355Z,1.55
2023-05-20T11:40:52.007Z,1.58
2023-05-20T11:43:20.146Z,1.38
2023-05-20T11:48:17.972Z,1.98
2023-05-20T11:50:46.792Z,1.60
2023-05-20T11:53:18.850Z,2.42
2023-05-20T11:55:49.350Z,6.65
2023-05-20T11:58:24.207Z,10.77
2023-05-20T12:00:57.077Z,7.57
2023-05-20T12:03:33.177Z,3.50
2023-05-20T12:06:12.045Z,5.32
2023-05-20T12:08:39.028Z,4.63
2023-05-20T12:11:05.841Z,1.73
2023-05-20T12:13:34.988Z,1.75
2023-05-20T12:16:02.188Z,2.13
2023-05-20T12:18:28.986Z,2.88
2023-05-20T12:20:55.671Z,1.33
2023-05-20T12:23:22.312Z,1.83
2023-05-20T12:25:50.177Z,1.45
2023-05-20T12:28:17.841Z,1.48
2023-05-20T12:30:44.514Z,1.65
2023-05-20T12:33:11.131Z,1.73
2023-05-20T12:35:41.002Z,1.45
2023-05-20T12:38:08.315Z,1.48
2023-05-20T12:40:35.791Z,1.52
2023-05-20T12:43:04.833Z,1.58
2023-05-20T12:45:31.904Z,2.50
2023-05-20T12:47:59.384Z,1.52
2023-05-20T12:50:26.750Z,1.38
2023-05-20T12:52:53.598Z,1.48
2023-05-20T12:55:20.426Z,1.20
2023-05-20T12:57:47.657Z,1.20
2023-05-20T13:00:16.114Z,1.63
2023-05-20T13:02:43.973Z,1.13
2023-05-20T13:05:12.404Z,1.85
2023-05-20T13:07:42.231Z,1.42
2023-05-20T13:10:10.978Z,2.28
2023-05-20T13:12:38.286Z,2.45
2023-05-20T13:15:06.648Z,1.35
2023-05-20T13:17:33.488Z,2.45
2023-05-20T13:20:00.231Z,1.38
2023-05-20T13:22:26.946Z,1.10
2023-05-20T13:24:53.639Z,1.50
2023-05-20T13:27:20.361Z,1.77
2023-05-20T13:29:47.155Z,2.33
2023-05-20T13:32:13.899Z,2.78
2023-05-20T13:34:43.661Z,1.92
2023-05-20T13:37:10.877Z,1.85
2023-05-20T13:39:37.648Z,2.33
2023-05-20T13:42:04.478Z,2.80
2023-05-20T13:44:32.564Z,2.15
2023-05-20T13:46:59.607Z,2.45
2023-05-20T13:49:26.332Z,2.65
2023-05-20T13:51:53.078Z,2.00
2023-05-20T13:54:21.716Z,2.05
2023-05-20T13:56:48.701Z,2.10
2023-05-20T13:59:15.468Z,2.88
2023-05-20T14:01:45.695Z,1.90
2023-05-20T14:04:13.082Z,2.50
2023-05-20T14:06:40.628Z,2.72
2023-05-20T14:09:10.978Z,4.03
2023-05-20T14:11:37.746Z,2.70
2023-05-20T14:14:04.487Z,2.03
2023-05-20T14:16:31.987Z,2.63
2023-05-20T14:18:58.960Z,2.03
2023-05-20T14:21:25.882Z,2.20
2023-05-20T14:23:52.573Z,2.40
2023-05-20T14:26:19.305Z,2.00
2023-05-20T14:28:46.124Z,2.03
2023-05-20T14:31:12.922Z,1.50
2023-05-20T14:33:39.689Z,1.52
2023-05-20T14:36:06.836Z,2.50
2023-05-20T14:38:33.629Z,2.00
2023-05-20T14:41:00.456Z,2.47
2023-05-20T14:43:27.264Z,2.60
2023-05-20T14:45:53.986Z,1.48
2023-05-20T14:48:20.801Z,3.63
2023-05-20T14:50:49.005Z,1.80
2023-05-20T14:53:17.307Z,2.88
2023-05-20T14:55:44.097Z,2.60
2023-05-20T14:58:12.366Z,2.85
2023-05-20T15:00:39.501Z,1.60
2023-05-20T15:03:06.541Z,3.20
2023-05-20T15:05:33.597Z,2.25
2023-05-20T15:08:00.616Z,2.35
2023-05-20T15:10:27.174Z,2.05
2023-05-20T15:12:53.917Z,2.72
2023-05-20T15:15:21.597Z,2.13
2023-05-20T15:17:48.478Z,2.72
2023-05-20T15:20:15.170Z,2.45
2023-05-20T15:22:44.151Z,2.13
2023-05-20T15:25:10.893Z,2.47
2023-05-20T15:27:37.676Z,1.70
2023-05-20T15:30:04.768Z,2.13
2023-05-20T15:32:31.552Z,2.70
2023-05-20T15:34:58.531Z,3.08
2023-05-20T15:37:25.161Z,3.08
2023-05-20T15:39:51.936Z,2.63
2023-05-20T15:42:18.837Z,2.72
2023-05-20T15:44:45.930Z,2.83
2023-05-20T15:47:12.846Z,3.05
2023-05-20T15:49:39.690Z,2.05
2023-05-20T15:52:06.654Z,2.83
2023-05-20T15:54:33.319Z,2.72
2023-05-20T15:57:00.170Z,2.83
2023-05-20T15:59:26.917Z,2.10
2023-05-20T16:01:53.739Z,3.20
2023-05-20T16:04:20.838Z,1.92
2023-05-20T16:06:47.815Z,2.00
2023-05-20T16:09:14.532Z,1.80
2023-05-20T16:11:41.208Z,1.92
2023-05-20T16:14:07.851Z,1.77
2023-05-20T16:16:36.238Z,1.98
2023-05-20T16:19:03.398Z,1.30
2023-05-20T16:21:30.246Z,1.75
2023-05-20T16:23:56.957Z,2.38
2023-05-20T16:26:24.863Z,2.60
2023-05-20T16:28:51.562Z,2.42
2023-05-20T16:31:18.329Z,2.17
2023-05-20T16:33:45.024Z,2.65
2023-05-20T16:36:12.166Z,2.33
2023-05-20T16:38:39.289Z,1.33
2023-05-20T16:41:06.083Z,2.92
2023-05-20T16:43:32.742Z,2.38
2023-05-20T16:45:59.686Z,2.20
2023-05-20T16:48:26.835Z,2.33
2023-05-20T16:50:53.639Z,2.63
2023-05-20T16:53:20.763Z,3.28
2023-05-20T16:55:47.809Z,1.92
2023-05-20T16:58:14.543Z,1.98
2023-05-20T17:00:41.660Z,1.83
2023-05-20T17:03:08.451Z,1.88
2023-05-20T17:05:35.159Z,2.28
2023-05-20T17:08:02.081Z,2.00
2023-05-20T17:10:29.654Z,2.25
2023-05-20T17:12:56.498Z,1.90
2023-05-20T17:15:23.797Z,1.63
2023-05-20T17:17:50.818Z,1.85
2023-05-20T17:20:17.707Z,1.35
2023-05-20T17:22:44.550Z,1.92
2023-05-20T17:25:11.489Z,1.15
2023-05-20T17:27:38.393Z,1.35
2023-05-20T17:30:05.753Z,1.75
2023-05-20T17:32:32.530Z,1.27
2023-05-20T17:34:59.339Z,1.20
2023-05-20T17:37:26.209Z,2.20
2023-05-20T17:39:52.914Z,1.42
2023-05-20T17:42:19.612Z,2.15
2023-05-20T17:44:46.601Z,1.85
2023-05-20T17:47:13.492Z,1.45
2023-05-20T17:49:43.360Z,1.05
2023-05-20T17:52:11.118Z,1.42
2023-05-20T17:54:37.854Z,1.27
2023-05-20T17:57:04.673Z,1.23
2023-05-20T17:59:33.900Z,1.30
2023-05-20T18:02:01.219Z,1.17
2023-05-20T18:04:28.524Z,1.02
2023-05-20T18:06:55.170Z,1.60
2023-05-20T18:09:21.848Z,1.63
2023-05-20T18:11:48.511Z,1.20
2023-05-20T18:14:18.696Z,1.60
2023-05-20T18:16:45.539Z,1.38
2023-05-20T18:19:12.254Z,1.58
2023-05-20T18:21:39.145Z,1.30
2023-05-20T18:24:06.160Z,1.42
2023-05-20T18:26:33.459Z,1.35
2023-05-20T18:29:00.066Z,2.42
2023-05-20T18:31:27.092Z,1.10
2023-05-20T18:33:53.888Z,1.15
2023-05-20T18:36:20.742Z,1.33
2023-05-20T18:38:47.590Z,1.67
2023-05-20T18:41:14.406Z,1.40
2023-05-20T18:43:41.232Z,1.73
2023-05-20T18:46:07.915Z,1.63
2023-05-20T18:48:34.606Z,1.00
2023-05-20T18:51:01.297Z,1.27
2023-05-20T18:53:27.957Z,1.23
2023-05-20T18:55:56.125Z,1.33
2023-05-20T18:58:22.820Z,0.95
2023-05-20T19:00:49.645Z,1.48
2023-05-20T19:03:17.101Z,1.13
2023-05-20T19:05:43.916Z,1.00
2023-05-20T19:08:10.729Z,1.20
2023-05-20T19:10:37.362Z,1.25
2023-05-20T19:13:04.024Z,1.23
2023-05-20T19:15:31.297Z,1.30
2023-05-20T19:17:58.025Z,1.77
2023-05-20T19:20:26.137Z,1.02
2023-05-20T19:22:53.272Z,1.30
2023-05-20T19:25:20.106Z,1.52
2023-05-20T19:27:46.802Z,0.80
2023-05-20T19:30:13.573Z,1.35
2023-05-20T19:32:40.952Z,1.15
2023-05-20T19:35:11.605Z,1.30
2023-05-20T19:37:38.455Z,1.08
2023-05-20T19:40:06.718Z,0.73
2023-05-20T19:47:27.197Z,0.90
2023-05-20T19:49:54.900Z,1.13
2023-05-20T19:52:21.545Z,1.42
2023-05-20T19:54:48.280Z,0.98
2023-05-20T19:57:14.892Z,2.28
2023-05-20T19:59:41.837Z,1.38
2023-05-20T20:02:09.073Z,1.58
2023-05-20T20:04:36.207Z,1.60
2023-05-20T20:07:03.547Z,1.40
2023-05-20T20:09:30.337Z,1.10
2023-05-20T20:11:57.570Z,1.10
2023-05-20T20:14:25.344Z,1.05
2023-05-20T20:16:52.313Z,0.95
2023-05-20T20:19:22.832Z,1.02
2023-05-20T20:21:53.102Z,1.15
2023-05-20T20:24:20.408Z,1.45
2023-05-20T20:26:47.599Z,1.10
2023-05-20T20:29:14.959Z,2.75
2023-05-20T20:31:41.869Z,1.23
2023-05-20T20:34:10.915Z,1.10
2023-05-20T20:36:37.631Z,1.35
2023-05-20T20:39:07.000Z,2.22
2023-05-20T20:41:33.696Z,1.15
2023-05-20T20:44:03.574Z,1.90
2023-05-20T20:46:31.098Z,2.13
2023-05-20T20:48:58.009Z,1.33
2023-05-20T20:51:24.784Z,1.23
2023-05-20T20:53:52.530Z,1.77
2023-05-20T20:56:19.283Z,1.75
2023-05-20T20:58:46.432Z,1.20
2023-05-20T21:01:17.706Z,1.80
2023-05-20T21:03:45.143Z,1.15
2023-05-20T21:06:15.149Z,1.17
2023-05-20T21:08:42.682Z,1.30
2023-05-20T21:11:09.530Z,1.70
2023-05-20T21:13:37.683Z,1.85
2023-05-20T21:16:06.724Z,1.23
2023-05-20T21:18:33.397Z,1.27
2023-05-20T21:21:00.395Z,1.33
2023-05-20T21:23:27.181Z,1.00
2023-05-20T21:25:53.843Z,1.63
2023-05-20T21:28:20.842Z,1.30
2023-05-20T21:30:47.460Z,1.48
2023-05-20T21:33:14.233Z,1.35
2023-05-20T21:35:40.881Z,1.83
2023-05-20T21:38:07.525Z,2.17
2023-05-20T21:40:34.111Z,1.52
2023-05-20T21:43:00.850Z,1.00
2023-05-20T21:45:27.524Z,1.77
2023-05-20T21:47:54.318Z,1.58
2023-05-20T21:50:21.161Z,1.23
2023-05-20T21:52:47.883Z,2.22
2023-05-20T21:55:14.712Z,1.13
2023-05-20T21:57:41.641Z,1.15
2023-05-20T22:00:15.199Z,1.00
2023-05-20T22:02:42.145Z,1.48
2023-05-20T22:05:09.407Z,0.75
2023-05-20T22:07:36.320Z,2.00
2023-05-20T22:10:03.720Z,1.23
2023-05-20T22:12:30.956Z,1.13
2023-05-20T22:14:57.740Z,0.80
2023-05-20T22:17:24.983Z,2.05
2023-05-20T22:19:52.009Z,1.63
2023-05-20T22:22:19.725Z,1.83
2023-05-20T22:24:46.426Z,1.30
2023-05-20T22:27:13.157Z,1.73
2023-05-20T22:29:40.667Z,1.20
2023-05-20T22:32:07.419Z,1.10
2023-05-20T22:34:34.130Z,1.35
2023-05-20T22:37:00.919Z,1.58
2023-05-20T22:39:27.628Z,1.65
2023-05-20T22:41:54.583Z,1.55
2023-05-20T22:44:21.548Z,1.73
2023-05-20T22:46:48.230Z,1.30
2023-05-20T22:49:15.590Z,2.08
2023-05-20T22:51:42.775Z,1.27
2023-05-20T22:54:09.736Z,1.15
2023-05-20T22:56:36.444Z,1.60
2023-05-20T22:59:03.361Z,1.85
2023-05-20T23:01:30.064Z,1.65
2023-05-20T23:03:56.853Z,1.45
2023-05-20T23:06:23.569Z,1.17
2023-05-20T23:08:50.267Z,1.75
2023-05-20T23:11:16.863Z,1.25
2023-05-20T23:13:43.678Z,0.98
2023-05-20T23:16:13.309Z,1.50
2023-05-20T23:18:43.791Z,1.40
2023-05-20T23:21:10.726Z,1.95
2023-05-20T23:23:37.506Z,1.33
2023-05-20T23:26:05.255Z,2.03
2023-05-20T23:28:32.172Z,1.33
2023-05-20T23:30:59.207Z,1.73
2023-05-20T23:33:26.115Z,1.70
2023-05-20T23:35:53.213Z,1.20
2023-05-20T23:38:19.909Z,1.30
2023-05-20T23:40:46.559Z,1.00
2023-05-20T23:43:13.430Z,2.08
2023-05-20T23:45:41.096Z,1.17
2023-05-20T23:48:11.217Z,1.52
2023-05-20T23:50:38.205Z,1.35
2023-05-20T23:53:05.803Z,1.60
2023-05-20T23:55:32.507Z,1.23
2023-05-20T23:57:59.189Z,1.25
